NK71 weather

Marcellus Airport
Marcellus, New York, United States

Public forecast

Using degrees Fahrenheit for public forecast. Weather courtesy of forecast.io.

METAR (pilot weather report)

Closest report is Syracuse Hancock International Airport, 12.2 nm (22.7 km) ENE. Retrieved 2019/09/18 07:54 UTC (16 minutes ago):

KSYR 180754Z 00000KT 10SM CLR 09/07 A3025 RMK AO2 SLP240 T00890072

TAF (pilot weather forecast)

Closest forecast is Syracuse Hancock International Airport, 12.2 nm (22.7 km) ENE. Retrieved 2019/09/18 06:42 UTC (1 hour ago):

TAF KSYR 180540Z 1806/1906 VRB02KT P6SM SKC FM181500 06005KT P6SM FEW050 FM190000 VRB02KT P6SM SKC